EWG192 EDDL-EDDF
Flight info
| Callsign | EWG192 |
|---|---|
| Flight time | N/A |
| Altitude | 19000 |
| Route | COL5Z/05R COL T911 ROLIS ROLIS5D |
| Aircraft | A320/M-SDE3FGHIRWY/LB1 |
Departure
| Time | 2026-05-07 19:08 |
|---|---|
| Airport | Düsseldorf Airport (EDDL) |
Arrival
| Time | N/A |
|---|---|
| Airport | Frankfurt Main Airport (EDDF) |
| Time | Latitude | Longitude | Altitude | Speed | Heading |
|---|---|---|---|---|---|
| 2026-05-07 18:48 | 51.28018 | 6.76424 | 131 ft | 0 kts | 207° |
| 2026-05-07 18:58 | 51.28031 | 6.76435 | 126 ft | 4 kts | 229° |
| 2026-05-07 18:58 | 51.28037 | 6.76469 | 127 ft | 4 kts | 300° |
| 2026-05-07 18:58 | 51.28024 | 6.76492 | 127 ft | 1 kts | 327° |
| 2026-05-07 18:59 | 51.28021 | 6.76495 | 128 ft | 1 kts | 327° |
| 2026-05-07 19:02 | 51.28034 | 6.76481 | 130 ft | 4 kts | 327° |
| 2026-05-07 19:02 | 51.28055 | 6.76459 | 129 ft | 3 kts | 327° |
| 2026-05-07 19:02 | 51.28069 | 6.76445 | 128 ft | 3 kts | 327° |
| 2026-05-07 19:03 | 51.28080 | 6.76433 | 130 ft | 1 kts | 327° |
| 2026-05-07 19:03 | 51.28104 | 6.76406 | 132 ft | 4 kts | 320° |
| 2026-05-07 19:03 | 51.28135 | 6.76340 | 133 ft | 11 kts | 303° |
| 2026-05-07 19:03 | 51.28187 | 6.76250 | 134 ft | 10 kts | 313° |
| 2026-05-07 19:04 | 51.28202 | 6.76186 | 134 ft | 0 kts | 267° |
| 2026-05-07 19:04 | 51.28202 | 6.76185 | 134 ft | 1 kts | 267° |
| 2026-05-07 19:04 | 51.28195 | 6.76143 | 133 ft | 4 kts | 256° |
| 2026-05-07 19:04 | 51.28198 | 6.76102 | 133 ft | 3 kts | 288° |
| 2026-05-07 19:05 | 51.28215 | 6.76067 | 133 ft | 3 kts | 318° |
| 2026-05-07 19:05 | 51.28227 | 6.76051 | 134 ft | 1 kts | 322° |
| 2026-05-07 19:05 | 51.28231 | 6.76047 | 134 ft | 1 kts | 323° |
| 2026-05-07 19:05 | 51.28264 | 6.76026 | 134 ft | 8 kts | 347° |
| 2026-05-07 19:06 | 51.28301 | 6.76015 | 133 ft | 8 kts | 353° |
| 2026-05-07 19:06 | 51.28374 | 6.76071 | 132 ft | 0 kts | 51° |
| 2026-05-07 19:07 | 51.28462 | 6.76256 | 131 ft | 58 kts | 53° |
| 2026-05-07 19:08 | 51.28864 | 6.77095 | 140 ft | 129 kts | 52° |
| 2026-05-07 19:08 | 51.29482 | 6.78416 | 441 ft | 155 kts | 56° |
| 2026-05-07 19:08 | 51.30122 | 6.79887 | 1183 ft | 160 kts | 54° |
| 2026-05-07 19:08 | 51.30821 | 6.81365 | 1770 ft | 176 kts | 53° |
| 2026-05-07 19:09 | 51.31617 | 6.83007 | 2061 ft | 198 kts | 53° |
| 2026-05-07 19:09 | 51.32519 | 6.84850 | 2337 ft | 223 kts | 52° |
| 2026-05-07 19:09 | 51.33440 | 6.86735 | 2717 ft | 244 kts | 53° |
| 2026-05-07 19:09 | 51.34469 | 6.88975 | 3416 ft | 254 kts | 54° |
| 2026-05-07 19:10 | 51.35233 | 6.91531 | 4242 ft | 261 kts | 79° |
| 2026-05-07 19:10 | 51.35168 | 6.94452 | 5074 ft | 267 kts | 99° |
| 2026-05-07 19:10 | 51.34858 | 6.97379 | 5917 ft | 271 kts | 98° |
| 2026-05-07 19:10 | 51.34544 | 7.00373 | 6740 ft | 274 kts | 99° |
| 2026-05-07 19:11 | 51.33903 | 7.03265 | 7492 ft | 281 kts | 122° |
| 2026-05-07 19:11 | 51.32551 | 7.05525 | 8258 ft | 285 kts | 148° |
| 2026-05-07 19:11 | 51.30816 | 7.07077 | 9061 ft | 288 kts | 152° |
| 2026-05-07 19:11 | 51.29046 | 7.08612 | 9895 ft | 291 kts | 152° |
| 2026-05-07 19:12 | 51.27228 | 7.10200 | 10475 ft | 302 kts | 152° |
| 2026-05-07 19:12 | 51.25338 | 7.11855 | 10691 ft | 325 kts | 152° |
| 2026-05-07 19:12 | 51.23969 | 7.13058 | 10838 ft | 339 kts | 152° |
| 2026-05-07 19:12 | 51.22236 | 7.14584 | 11233 ft | 347 kts | 152° |
| 2026-05-07 19:13 | 51.20112 | 7.16459 | 11933 ft | 351 kts | 152° |
| 2026-05-07 19:13 | 51.17962 | 7.18350 | 12651 ft | 354 kts | 152° |
| 2026-05-07 19:13 | 51.15791 | 7.20254 | 13348 ft | 358 kts | 152° |
| 2026-05-07 19:13 | 51.13602 | 7.22174 | 14023 ft | 362 kts | 152° |
| 2026-05-07 19:14 | 51.11388 | 7.24114 | 14629 ft | 365 kts | 152° |
| 2026-05-07 19:14 | 51.09148 | 7.26074 | 15240 ft | 368 kts | 152° |
| 2026-05-07 19:14 | 51.06896 | 7.28036 | 15838 ft | 371 kts | 153° |
| 2026-05-07 19:14 | 51.04616 | 7.30021 | 16443 ft | 375 kts | 153° |
| 2026-05-07 19:15 | 51.02321 | 7.32020 | 17030 ft | 378 kts | 153° |
| 2026-05-07 19:15 | 51.00007 | 7.34037 | 17617 ft | 381 kts | 153° |
| 2026-05-07 19:15 | 50.97667 | 7.36076 | 18215 ft | 385 kts | 153° |
| 2026-05-07 19:15 | 50.95315 | 7.38125 | 18745 ft | 388 kts | 153° |
| 2026-05-07 19:16 | 50.92939 | 7.40192 | 19010 ft | 390 kts | 153° |
| 2026-05-07 19:16 | 50.90548 | 7.42264 | 19075 ft | 396 kts | 153° |
| 2026-05-07 19:16 | 50.88270 | 7.44234 | 19083 ft | 399 kts | 153° |
| 2026-05-07 19:16 | 50.85760 | 7.46398 | 19084 ft | 400 kts | 153° |
| 2026-05-07 19:17 | 50.83314 | 7.48505 | 19082 ft | 400 kts | 153° |
| 2026-05-07 19:17 | 50.80913 | 7.50572 | 19079 ft | 390 kts | 153° |
| 2026-05-07 19:17 | 50.78570 | 7.52592 | 19081 ft | 378 kts | 153° |
| 2026-05-07 19:17 | 50.76253 | 7.54589 | 19082 ft | 381 kts | 153° |
| 2026-05-07 19:18 | 50.73923 | 7.56593 | 19080 ft | 382 kts | 153° |
| 2026-05-07 19:18 | 50.71589 | 7.58597 | 19078 ft | 382 kts | 153° |
| 2026-05-07 19:18 | 50.69248 | 7.60604 | 19081 ft | 382 kts | 153° |
| 2026-05-07 19:18 | 50.66913 | 7.62603 | 19083 ft | 382 kts | 153° |
| 2026-05-07 19:19 | 50.64586 | 7.64592 | 18991 ft | 377 kts | 153° |
| 2026-05-07 19:19 | 50.62306 | 7.66540 | 18428 ft | 370 kts | 153° |
| 2026-05-07 19:19 | 50.60027 | 7.68485 | 17632 ft | 365 kts | 153° |
| 2026-05-07 19:19 | 50.57805 | 7.70382 | 16779 ft | 361 kts | 153° |
| 2026-05-07 19:20 | 50.55610 | 7.72250 | 16000 ft | 357 kts | 153° |
| 2026-05-07 19:20 | 50.53457 | 7.74080 | 15701 ft | 348 kts | 153° |
| 2026-05-07 19:20 | 50.51348 | 7.75874 | 15429 ft | 342 kts | 153° |
| 2026-05-07 19:20 | 50.49268 | 7.77641 | 15048 ft | 340 kts | 153° |
| 2026-05-07 19:21 | 50.47186 | 7.79403 | 14635 ft | 339 kts | 153° |
| 2026-05-07 19:21 | 50.45119 | 7.81158 | 14232 ft | 338 kts | 151° |
| 2026-05-07 19:21 | 50.43229 | 7.83316 | 13823 ft | 338 kts | 138° |
| 2026-05-07 19:21 | 50.41669 | 7.86066 | 13387 ft | 337 kts | 129° |
| 2026-05-07 19:22 | 50.40204 | 7.88919 | 12980 ft | 334 kts | 129° |
| 2026-05-07 19:22 | 50.38855 | 7.91521 | 12602 ft | 332 kts | 130° |
| 2026-05-07 19:22 | 50.37395 | 7.94316 | 12194 ft | 330 kts | 130° |
| 2026-05-07 19:22 | 50.35960 | 7.97060 | 11787 ft | 328 kts | 130° |
| 2026-05-07 19:23 | 50.34510 | 7.99837 | 11386 ft | 326 kts | 129° |
| 2026-05-07 19:23 | 50.33087 | 8.02563 | 11103 ft | 319 kts | 129° |
| 2026-05-07 19:23 | 50.31697 | 8.05224 | 10853 ft | 313 kts | 129° |
| 2026-05-07 19:23 | 50.30331 | 8.07836 | 10580 ft | 308 kts | 129° |
| 2026-05-07 19:24 | 50.28990 | 8.10429 | 10378 ft | 300 kts | 126° |
| 2026-05-07 19:24 | 50.27974 | 8.13248 | 10102 ft | 296 kts | 113° |
| 2026-05-07 19:24 | 50.27161 | 8.16183 | 10069 ft | 294 kts | 114° |
| 2026-05-07 19:24 | 50.26331 | 8.19120 | 10079 ft | 295 kts | 114° |
| 2026-05-07 19:25 | 50.25500 | 8.22035 | 10079 ft | 295 kts | 114° |
| 2026-05-07 19:25 | 50.24669 | 8.24939 | 10076 ft | 286 kts | 114° |
| 2026-05-07 19:25 | 50.23880 | 8.27692 | 10068 ft | 270 kts | 114° |
| 2026-05-07 19:25 | 50.23126 | 8.30323 | 10075 ft | 263 kts | 114° |
| 2026-05-07 19:26 | 50.22383 | 8.32916 | 10075 ft | 261 kts | 114° |
| 2026-05-07 19:26 | 50.21612 | 8.35483 | 10073 ft | 261 kts | 121° |
| 2026-05-07 19:26 | 50.20534 | 8.37744 | 10074 ft | 260 kts | 135° |
| 2026-05-07 19:26 | 50.19131 | 8.39515 | 10075 ft | 260 kts | 150° |
| 2026-05-07 19:27 | 50.17499 | 8.40703 | 10080 ft | 259 kts | 161° |
| 2026-05-07 19:27 | 50.15805 | 8.41650 | 10075 ft | 259 kts | 161° |
| 2026-05-07 19:27 | 50.14068 | 8.42338 | 10070 ft | 257 kts | 179° |
| 2026-05-07 19:27 | 50.12322 | 8.41949 | 10074 ft | 254 kts | 203° |
| 2026-05-07 19:28 | 50.10836 | 8.40517 | 10068 ft | 252 kts | 226° |
| 2026-05-07 19:28 | 50.09843 | 8.38297 | 10073 ft | 250 kts | 249° |